Terminal Aerodrome Forecast
Issued by NWS

Home | Current Version | Previous Version | Text Only | Print | Product List | Glossary On
Versions: 1 2 3 4 5 6 7 8 9 10 11 12 13 14 15 16 17 18 19 20 21 22 23 24
000
FTUS43 KJKL 301514 AAA
TAFSME
TAF AMD
KSME 301514Z 3015/0112 VRB04KT P6SM FEW002 SCT020 BKN250
      TEMPO 3015/3016 BKN015
     FM301600 25009KT P6SM VCTS BKN045CB
     FM010400 VRB03KT 5SM BR SCT080 BKN250=

USA.gov is the U.S. government's official web portal to all federal, state and local government web resources and services.